Time;durP1;ratioP1;P1;durP2;ratioP2;P2;SDS_P1;SDS_P2;PMS_P1;PMS_P2;Temp;Humidity;BMP_temperature;BMP_pressure;BME280_temperature;BME280_humidity;BME280_pressure;Samples;Min_cycle;Max_cycle;Signal;HPM_P1;HPM_P2
2023/06/27 00:01:30;;;;;;;16.47;9.23;;;;;;;15.23;100.00;94322.06;5068402;28;20035;-59
2023/06/27 00:04:00;;;;;;;9.68;5.13;;;;;;;15.19;100.00;94318.59;5068664;28;20071;-59
2023/06/27 00:06:27;;;;;;;6.40;2.72;;;;;;;15.02;100.00;94317.84;5068023;28;20052;-59
2023/06/27 00:08:54;;;;;;;5.22;2.70;;;;;;;15.20;100.00;94313.84;5068582;28;20087;-59
2023/06/27 00:11:21;;;;;;;5.38;2.60;;;;;;;15.12;100.00;94332.59;5050111;28;20053;-59
2023/06/27 00:13:48;;;;;;;5.57;2.73;;;;;;;15.08;100.00;94321.63;5068081;28;20045;-60
2023/06/27 00:16:17;;;;;;;4.75;2.30;;;;;;;15.14;100.00;94314.38;5066415;28;20044;-59
2023/06/27 00:18:50;;;;;;;6.90;2.50;;;;;;;15.16;100.00;94314.72;5056690;28;20037;-59
2023/06/27 00:21:17;;;;;;;9.65;5.57;;;;;;;15.15;100.00;94315.94;5078705;28;20059;-58
2023/06/27 00:23:44;;;;;;;8.95;2.88;;;;;;;15.02;100.00;94312.31;5042753;28;20037;-60
2023/06/27 00:26:12;;;;;;;9.93;3.13;;;;;;;15.10;100.00;94318.44;5062972;28;20048;-58
2023/06/27 00:28:39;;;;;;;7.68;2.70;;;;;;;15.08;100.00;94316.13;5068000;28;20132;-60
2023/06/27 00:31:06;;;;;;;4.95;2.70;;;;;;;15.16;100.00;94317.47;5052306;28;20060;-60
2023/06/27 00:33:33;;;;;;;7.15;2.90;;;;;;;15.23;100.00;94318.50;5067864;28;20051;-58
2023/06/27 00:36:00;;;;;;;6.00;2.70;;;;;;;15.20;100.00;94319.38;5068155;28;20374;-58
2023/06/27 00:38:27;;;;;;;6.70;2.70;;;;;;;15.09;100.00;94320.44;5049634;28;20053;-58
2023/06/27 00:40:54;;;;;;;5.68;2.50;;;;;;;15.05;100.00;94324.50;5060728;28;20045;-60
2023/06/27 00:43:20;;;;;;;7.40;2.92;;;;;;;15.11;100.00;94322.75;5049670;28;20051;-59
2023/06/27 00:45:49;;;;;;;6.00;2.55;;;;;;;15.15;100.00;94323.44;5042284;28;20378;-59
2023/06/27 00:48:16;;;;;;;4.13;2.50;;;;;;;15.10;100.00;94323.97;5049644;28;20052;-59
2023/06/27 00:50:45;;;;;;;5.63;2.50;;;;;;;14.96;100.00;94317.59;5050403;28;20047;-59
2023/06/27 00:53:12;;;;;;;4.60;2.40;;;;;;;14.93;100.00;94318.47;5054484;28;20043;-59
2023/06/27 00:55:40;;;;;;;6.97;2.50;;;;;;;15.00;100.00;94317.50;5049276;28;20566;-59
2023/06/27 00:58:09;;;;;;;5.80;2.55;;;;;;;15.00;100.00;94320.28;5067840;28;20036;-59
2023/06/27 01:00:37;;;;;;;5.57;2.70;;;;;;;15.05;100.00;94319.75;5067612;28;20051;-59
2023/06/27 01:03:03;;;;;;;6.27;2.90;;;;;;;15.08;100.00;94327.16;5067812;28;20051;-59
2023/06/27 01:05:31;;;;;;;5.30;2.67;;;;;;;15.06;100.00;94326.06;5067491;28;20085;-59
2023/06/27 01:08:14;;;;;;;5.75;2.78;;;;;;;14.95;100.00;94318.03;5067908;28;20071;-59
2023/06/27 01:10:57;;;;;;;4.88;2.40;;;;;;;14.46;100.00;94329.06;5058001;28;20393;-60
2023/06/27 01:13:42;;;;;;;5.60;2.67;;;;;;;14.25;100.00;94328.38;5065887;28;20404;-60
2023/06/27 01:16:09;;;;;;;5.83;2.83;;;;;;;14.00;100.00;94334.44;5067265;28;20056;-60
2023/06/27 01:18:39;;;;;;;7.43;2.92;;;;;;;13.91;100.00;94323.97;5067298;28;20041;-60
2023/06/27 01:21:08;;;;;;;7.07;3.00;;;;;;;13.88;100.00;94337.84;5080126;28;20050;-60
2023/06/27 01:23:53;;;;;;;6.53;3.00;;;;;;;13.92;100.00;94336.59;5050564;28;20063;-59
2023/06/27 01:26:21;;;;;;;6.82;3.10;;;;;;;13.82;100.00;94331.28;5063135;28;20059;-59
2023/06/27 01:28:48;;;;;;;6.13;2.97;;;;;;;13.50;100.00;94336.25;5071999;28;20059;-59
2023/06/27 01:31:37;;;;;;;6.38;3.20;;;;;;;13.38;100.00;94334.13;5073309;28;20052;-59
2023/06/27 01:34:21;;;;;;;6.05;3.30;;;;;;;13.42;100.00;94342.31;5071653;28;20039;-59
2023/06/27 01:36:53;;;;;;;8.75;3.35;;;;;;;13.50;100.00;94338.22;5070440;28;20048;-58
2023/06/27 01:39:38;;;;;;;6.40;3.10;;;;;;;13.57;100.00;94340.84;5070811;28;20053;-59
2023/06/27 01:42:14;;;;;;;5.53;2.87;;;;;;;13.73;100.00;94324.34;5060006;28;20420;-59
2023/06/27 01:44:47;;;;;;;7.43;2.80;;;;;;;13.80;100.00;94326.19;5050592;28;22183;-59
2023/06/27 01:47:15;;;;;;;7.35;3.00;;;;;;;13.83;100.00;94330.09;5048664;28;20056;-59
2023/06/27 01:49:42;;;;;;;8.63;3.17;;;;;;;13.82;100.00;94323.00;5056541;28;20668;-59
2023/06/27 01:52:12;;;;;;;6.63;2.95;;;;;;;13.84;100.00;94329.63;5071029;28;20760;-59
2023/06/27 01:54:43;;;;;;;6.93;3.33;;;;;;;13.87;100.00;94331.56;5070608;28;20430;-59
2023/06/27 01:57:11;;;;;;;5.20;3.30;;;;;;;13.87;100.00;94328.03;5066855;28;20604;-60
2023/06/27 01:59:38;;;;;;;4.72;2.63;;;;;;;13.88;100.00;94319.31;5061286;28;20075;-60
2023/06/27 02:02:05;;;;;;;6.95;3.20;;;;;;;13.86;100.00;94309.91;5052847;28;20048;-59
2023/06/27 02:04:32;;;;;;;5.82;2.90;;;;;;;13.81;100.00;94315.94;5058082;28;20677;-60
2023/06/27 02:06:59;;;;;;;5.37;2.93;;;;;;;13.83;100.00;94317.06;5053175;28;20048;-59
2023/06/27 02:09:26;;;;;;;7.38;2.90;;;;;;;13.84;100.00;94318.59;5064213;28;20040;-59
2023/06/27 02:11:52;;;;;;;6.07;2.90;;;;;;;13.81;100.00;94318.72;5029427;28;20704;-59
2023/06/27 02:14:19;;;;;;;5.57;3.00;;;;;;;13.79;100.00;94308.88;5070109;28;20045;-58
2023/06/27 02:16:46;;;;;;;5.07;2.80;;;;;;;13.54;100.00;94309.41;5068573;28;20473;-59
2023/06/27 02:19:13;;;;;;;5.53;3.10;;;;;;;13.60;100.00;94317.94;5052680;28;20055;-60
2023/06/27 02:21:39;;;;;;;5.75;2.72;;;;;;;13.58;100.00;94310.09;5052978;28;20610;-59
2023/06/27 02:24:06;;;;;;;6.45;3.00;;;;;;;13.55;100.00;94313.69;5065373;28;20070;-59
2023/06/27 02:26:33;;;;;;;5.90;2.97;;;;;;;13.53;100.00;94304.28;5069737;28;20052;-60
2023/06/27 02:29:00;;;;;;;7.38;2.75;;;;;;;13.50;100.00;94314.19;5070068;28;20432;-59
2023/06/27 02:31:26;;;;;;;7.13;2.80;;;;;;;13.46;100.00;94313.50;5081295;28;20101;-59
2023/06/27 02:33:53;;;;;;;7.18;2.92;;;;;;;13.41;100.00;94313.22;5070242;28;20040;-59
2023/06/27 02:36:22;;;;;;;6.43;2.80;;;;;;;13.30;100.00;94310.66;5056067;28;20043;-59
2023/06/27 02:38:49;;;;;;;5.95;2.88;;;;;;;13.27;100.00;94306.75;5070314;28;20052;-59
2023/06/27 02:41:16;;;;;;;8.32;3.08;;;;;;;13.30;100.00;94302.38;5064586;28;20049;-59
2023/06/27 02:43:43;;;;;;;6.63;2.90;;;;;;;13.28;100.00;94300.03;5050241;28;20052;-59
2023/06/27 02:46:09;;;;;;;5.65;3.05;;;;;;;13.27;100.00;94303.97;5059865;28;20154;-60
2023/06/27 02:48:36;;;;;;;6.13;3.20;;;;;;;13.29;100.00;94306.31;5069765;28;20044;-59
2023/06/27 02:51:03;;;;;;;8.23;4.35;;;;;;;13.30;100.00;94296.88;5069963;28;20067;-59
2023/06/27 02:53:30;;;;;;;6.45;3.33;;;;;;;13.27;100.00;94306.75;5069270;28;20508;-58
2023/06/27 02:56:01;;;;;;;6.37;3.23;;;;;;;13.27;100.00;94308.72;5052225;28;20045;-59
2023/06/27 02:58:29;;;;;;;6.68;3.13;;;;;;;13.26;100.00;94309.91;5055761;28;20041;-59
2023/06/27 03:01:00;;;;;;;8.38;3.05;;;;;;;13.25;100.00;94311.91;5052278;28;20049;-59
2023/06/27 03:03:26;;;;;;;9.50;3.03;;;;;;;13.23;100.00;94319.81;5057749;28;20048;-59
2023/06/27 03:05:53;;;;;;;5.72;3.20;;;;;;;13.27;100.00;94315.00;5068571;28;20346;-59
2023/06/27 03:08:20;;;;;;;6.67;3.10;;;;;;;13.25;100.00;94313.88;5069346;28;20497;-59
2023/06/27 03:10:47;;;;;;;6.43;3.28;;;;;;;13.10;100.00;94321.63;5056219;28;20370;-60
2023/06/27 03:13:13;;;;;;;5.82;2.95;;;;;;;12.98;100.00;94318.31;5069673;28;20040;-60
2023/06/27 03:15:40;;;;;;;8.57;3.40;;;;;;;12.99;100.00;94328.09;5047945;28;20402;-60
2023/06/27 03:18:07;;;;;;;5.88;3.20;;;;;;;12.94;100.00;94325.09;5069444;28;20045;-61
2023/06/27 03:20:34;;;;;;;6.40;3.27;;;;;;;12.99;100.00;94330.09;5076912;28;20058;-59
2023/06/27 03:23:01;;;;;;;5.15;2.90;;;;;;;13.04;100.00;94326.06;5070042;28;20052;-60
2023/06/27 03:25:27;;;;;;;4.78;2.90;;;;;;;13.02;100.00;94326.50;5068953;28;20052;-60
2023/06/27 03:27:54;;;;;;;6.68;3.30;;;;;;;12.87;100.00;94322.44;5068979;28;20044;-61
2023/06/27 03:30:21;;;;;;;5.45;3.00;;;;;;;12.94;100.00;94330.59;5078246;28;20079;-60
2023/06/27 03:32:48;;;;;;;5.60;3.43;;;;;;;13.06;100.00;94329.19;5071486;28;20047;-60
2023/06/27 03:35:14;;;;;;;6.20;3.00;;;;;;;13.08;100.00;94335.84;5068797;28;20058;-59
2023/06/27 03:37:41;;;;;;;7.50;3.75;;;;;;;13.11;100.00;94331.47;5034512;28;20043;-59
2023/06/27 03:40:08;;;;;;;6.10;3.33;;;;;;;13.16;100.00;94334.50;5051401;28;20048;-60
2023/06/27 03:42:35;;;;;;;44.38;27.85;;;;;;;13.27;100.00;94331.53;5045696;28;20049;-60
2023/06/27 03:45:02;;;;;;;11.30;6.27;;;;;;;13.31;100.00;94331.50;5048987;28;20067;-59
2023/06/27 03:47:30;;;;;;;7.88;4.30;;;;;;;13.27;100.00;94331.53;5064917;28;20052;-59
2023/06/27 03:49:57;;;;;;;5.75;3.35;;;;;;;13.09;100.00;94329.13;5068108;28;20048;-60
2023/06/27 03:52:23;;;;;;;6.88;3.58;;;;;;;12.96;100.00;94330.94;5068366;28;20040;-60
2023/06/27 03:54:50;;;;;;;7.97;3.38;;;;;;;13.13;100.00;94327.06;5068906;28;20117;-60
2023/06/27 03:57:17;;;;;;;6.47;3.40;;;;;;;12.99;100.00;94321.81;5063104;28;20033;-60
2023/06/27 03:59:44;;;;;;;6.97;3.75;;;;;;;13.28;100.00;94322.09;5042955;28;20051;-60
2023/06/27 04:02:11;;;;;;;7.03;3.38;;;;;;;13.30;100.00;94314.19;5068920;28;20047;-60
2023/06/27 04:04:37;;;;;;;5.95;3.60;;;;;;;13.52;100.00;94317.31;5050596;28;20503;-60
2023/06/27 04:07:05;;;;;;;6.70;3.58;;;;;;;13.47;100.00;94320.56;5050742;28;20070;-59
2023/06/27 04:09:32;;;;;;;17.30;9.10;;;;;;;13.16;100.00;94326.25;5033860;28;20040;-60
2023/06/27 04:11:59;;;;;;;23.65;13.32;;;;;;;13.10;100.00;94330.69;5050739;28;20443;-59
2023/06/27 04:14:27;;;;;;;12.35;5.25;;;;;;;12.85;100.00;94336.63;5061340;28;20053;-60
2023/06/27 04:16:54;;;;;;;14.57;4.47;;;;;;;12.89;100.00;94344.84;5062357;28;20057;-60
2023/06/27 04:19:21;;;;;;;9.63;4.30;;;;;;;13.26;100.00;94334.72;5067891;28;20036;-59
2023/06/27 04:21:48;;;;;;;7.80;3.90;;;;;;;13.53;100.00;94329.88;5075501;28;20039;-60
2023/06/27 04:24:14;;;;;;;7.32;3.83;;;;;;;13.02;100.00;94331.22;5067671;28;20113;-59
2023/06/27 04:26:42;;;;;;;9.88;3.83;;;;;;;13.42;100.00;94334.06;5068127;28;20060;-60
2023/06/27 04:29:10;;;;;;;8.10;3.70;;;;;;;13.69;100.00;94339.44;5050671;28;20370;-61
2023/06/27 04:31:36;;;;;;;7.10;3.65;;;;;;;13.77;100.00;94333.34;5075753;28;20058;-60
2023/06/27 04:34:03;;;;;;;6.50;3.70;;;;;;;13.94;100.00;94323.16;5068270;28;20400;-59
2023/06/27 04:36:30;;;;;;;7.32;3.40;;;;;;;13.92;100.00;94320.03;5049803;28;20044;-59
2023/06/27 04:38:57;;;;;;;7.07;3.70;;;;;;;13.61;100.00;94310.44;5054770;28;20049;-61
2023/06/27 04:41:23;;;;;;;6.63;3.70;;;;;;;13.87;100.00;94323.28;5049815;28;20037;-60
2023/06/27 04:43:50;;;;;;;9.02;3.72;;;;;;;14.07;100.00;94319.72;5068431;28;20040;-60
2023/06/27 04:46:17;;;;;;;12.77;7.37;;;;;;;14.36;100.00;94315.06;5067555;28;20040;-60
2023/06/27 04:48:44;;;;;;;11.65;6.45;;;;;;;14.56;100.00;94305.97;5068185;28;20041;-60
2023/06/27 04:51:10;;;;;;;9.25;4.15;;;;;;;14.66;100.00;94315.22;5059845;28;20094;-60
2023/06/27 04:53:37;;;;;;;5.80;3.60;;;;;;;14.71;100.00;94325.75;5064039;28;20066;-61
2023/06/27 04:56:04;;;;;;;9.65;3.83;;;;;;;14.87;100.00;94333.22;5058394;28;20430;-60
2023/06/27 04:58:31;;;;;;;7.37;3.60;;;;;;;14.52;100.00;94332.88;5048449;28;20088;-61
2023/06/27 05:00:57;;;;;;;9.07;3.88;;;;;;;13.71;100.00;94337.03;5063901;28;20048;-59
2023/06/27 05:03:24;;;;;;;8.10;3.75;;;;;;;13.43;100.00;94335.63;5052965;28;20040;-60
2023/06/27 05:05:51;;;;;;;6.72;3.50;;;;;;;13.75;100.00;94340.50;5071910;28;20056;-60
2023/06/27 05:08:18;;;;;;;6.90;3.80;;;;;;;13.82;100.00;94337.56;5057883;28;20044;-60
2023/06/27 05:10:45;;;;;;;8.03;3.90;;;;;;;14.02;100.00;94345.81;5037612;28;20040;-61
2023/06/27 05:13:15;;;;;;;7.30;3.58;;;;;;;14.36;100.00;94341.91;5071619;28;20097;-60
2023/06/27 05:15:42;;;;;;;9.38;3.30;;;;;;;14.69;100.00;94347.47;5071942;28;20052;-60
2023/06/27 05:18:13;;;;;;;6.63;3.33;;;;;;;14.81;100.00;94337.72;5053579;28;20085;-60
2023/06/27 05:20:41;;;;;;;6.32;3.30;;;;;;;14.91;100.00;94328.38;5076214;28;20681;-60
2023/06/27 05:23:08;;;;;;;9.87;3.87;;;;;;;15.12;100.00;94324.31;5071803;28;20046;-60
2023/06/27 05:25:34;;;;;;;7.70;3.90;;;;;;;15.16;100.00;94314.72;5070784;28;20044;-60
2023/06/27 05:28:02;;;;;;;7.32;3.67;;;;;;;15.13;100.00;94323.88;5071594;28;20047;-60
2023/06/27 05:30:29;;;;;;;8.68;4.07;;;;;;;15.14;100.00;94330.19;5081176;28;20050;-60
2023/06/27 05:32:57;;;;;;;6.68;3.90;;;;;;;15.14;100.00;94330.97;5040830;28;20048;-60
2023/06/27 05:35:24;;;;;;;9.43;4.20;;;;;;;15.29;100.00;94317.53;5070801;28;20409;-60
2023/06/27 05:37:51;;;;;;;7.00;3.60;;;;;;;15.35;100.00;94326.06;5036802;28;20048;-60
2023/06/27 05:40:18;;;;;;;7.47;4.10;;;;;;;15.35;100.00;94331.59;5062597;28;20127;-60
2023/06/27 05:42:44;;;;;;;6.72;3.78;;;;;;;15.39;100.00;94329.50;5051256;28;20147;-59
2023/06/27 05:45:11;;;;;;;7.68;3.85;;;;;;;14.76;100.00;94336.28;5039913;28;20072;-60
2023/06/27 05:47:38;;;;;;;8.03;4.20;;;;;;;14.50;100.00;94332.53;5070531;28;20054;-60
2023/06/27 05:50:06;;;;;;;6.75;3.90;;;;;;;14.98;100.00;94333.75;5057716;28;20071;-60
2023/06/27 05:52:32;;;;;;;7.50;4.20;;;;;;;15.05;100.00;94335.53;5070702;28;20468;-60
2023/06/27 05:54:59;;;;;;;7.60;3.60;;;;;;;15.02;100.00;94331.66;5070896;28;20040;-60
2023/06/27 05:57:26;;;;;;;6.55;4.03;;;;;;;15.21;100.00;94332.75;5070367;28;20158;-61
2023/06/27 05:59:53;;;;;;;8.43;4.20;;;;;;;16.31;100.00;94333.59;5068083;28;20055;-61
2023/06/27 06:02:19;;;;;;;8.25;3.58;;;;;;;16.97;100.00;94320.06;5051727;28;20052;-61
2023/06/27 06:04:46;;;;;;;7.45;3.58;;;;;;;19.06;94.63;94335.38;5037732;28;20156;-61
2023/06/27 06:07:14;;;;;;;7.53;3.50;;;;;;;20.83;83.77;94326.34;5061612;28;20511;-61
2023/06/27 06:09:41;;;;;;;7.28;3.65;;;;;;;22.16;72.74;94316.03;5069573;28;20105;-61
2023/06/27 06:12:08;;;;;;;6.80;3.47;;;;;;;22.51;69.86;94316.91;5069548;28;20041;-62
2023/06/27 06:14:34;;;;;;;7.65;3.40;;;;;;;22.47;67.55;94309.97;5070068;28;20071;-61
2023/06/27 06:17:01;;;;;;;9.77;3.47;;;;;;;22.25;65.42;94308.34;5070610;28;20045;-61
2023/06/27 06:19:28;;;;;;;9.13;3.50;;;;;;;21.59;66.62;94311.44;5061817;28;20272;-63
2023/06/27 06:21:54;;;;;;;6.65;3.42;;;;;;;18.72;80.15;94317.63;5060005;28;20041;-63
2023/06/27 06:24:22;;;;;;;8.67;3.60;;;;;;;19.29;82.77;94319.31;5032476;28;20041;-64
2023/06/27 06:26:49;;;;;;;8.35;3.30;;;;;;;20.83;72.88;94320.75;5050628;28;20055;-62
2023/06/27 06:29:16;;;;;;;6.22;3.20;;;;;;;20.11;77.97;94315.72;5059390;28;20049;-61
2023/06/27 06:31:42;;;;;;;9.63;3.47;;;;;;;21.49;71.56;94307.94;5058589;28;20041;-63
2023/06/27 06:34:10;;;;;;;6.40;3.08;;;;;;;20.27;70.15;94320.16;5050446;28;20053;-63
2023/06/27 06:36:37;;;;;;;6.43;3.33;;;;;;;19.63;73.30;94323.03;5068894;28;20067;-62
2023/06/27 06:39:03;;;;;;;7.90;3.38;;;;;;;20.75;71.36;94325.91;5070293;28;20178;-62
2023/06/27 06:41:30;;;;;;;6.50;3.33;;;;;;;22.39;62.55;94320.00;5069541;28;20046;-60
2023/06/27 06:43:57;;;;;;;5.28;2.97;;;;;;;23.60;59.30;94319.97;5070221;28;20454;-60
2023/06/27 06:46:24;;;;;;;7.18;2.95;;;;;;;22.62;60.78;94324.72;5055502;28;20051;-61
2023/06/27 06:48:52;;;;;;;6.13;3.30;;;;;;;21.06;65.28;94329.63;5060224;28;20127;-62
2023/06/27 06:51:19;;;;;;;7.63;3.40;;;;;;;20.00;75.35;94317.44;5059086;28;20471;-62
2023/06/27 06:53:45;;;;;;;9.27;3.67;;;;;;;20.14;72.90;94319.56;5069833;28;20048;-62
2023/06/27 06:56:12;;;;;;;8.75;3.60;;;;;;;21.93;65.36;94312.84;5069652;28;20121;-62
2023/06/27 06:58:39;;;;;;;7.93;4.07;;;;;;;21.83;63.61;94316.97;5048857;28;20482;-63
2023/06/27 07:01:06;;;;;;;8.80;3.67;;;;;;;21.41;66.79;94306.72;5049967;28;20041;-64
2023/06/27 07:03:34;;;;;;;8.70;3.40;;;;;;;24.81;54.48;94306.13;5065395;28;20063;-63
2023/06/27 07:06:00;;;;;;;7.22;3.10;;;;;;;24.37;54.64;94300.88;5069925;28;20055;-63
2023/06/27 07:08:27;;;;;;;8.43;3.70;;;;;;;22.02;59.01;94309.19;5068770;28;20056;-64
2023/06/27 07:10:55;;;;;;;6.55;3.70;;;;;;;22.69;56.34;94301.16;5069604;28;20409;-62
2023/06/27 07:13:21;;;;;;;5.90;3.30;;;;;;;24.29;54.23;94303.38;5055201;28;20082;-61
2023/06/27 07:15:48;;;;;;;7.22;3.45;;;;;;;24.73;50.91;94302.25;5034292;28;20059;-61
2023/06/27 07:18:15;;;;;;;6.13;3.17;;;;;;;24.99;50.16;94309.78;5065180;28;20040;-62
2023/06/27 07:20:41;;;;;;;6.43;3.60;;;;;;;20.38;62.73;94304.97;5077979;28;20036;-62
2023/06/27 07:23:08;;;;;;;8.05;3.40;;;;;;;21.83;61.75;94306.59;5072093;28;20036;-62
2023/06/27 07:25:36;;;;;;;8.00;3.80;;;;;;;19.86;66.56;94302.16;5068939;28;20071;-62
2023/06/27 07:28:04;;;;;;;7.68;3.70;;;;;;;21.52;62.63;94284.66;5065598;28;20044;-62
2023/06/27 07:30:30;;;;;;;7.70;3.20;;;;;;;23.72;57.29;94285.19;5058626;28;20067;-61
2023/06/27 07:32:58;;;;;;;7.05;3.35;;;;;;;24.63;50.54;94289.63;5068831;28;20044;-62
2023/06/27 07:35:25;;;;;;;8.02;2.80;;;;;;;27.67;44.71;94287.38;5068473;28;20056;-63
2023/06/27 07:37:52;;;;;;;6.30;3.43;;;;;;;23.01;52.40;94302.13;5064019;28;20470;-61
2023/06/27 07:40:18;;;;;;;7.53;2.80;;;;;;;25.49;49.25;94298.88;5057388;28;20051;-62
2023/06/27 07:42:45;;;;;;;7.32;3.30;;;;;;;25.63;46.53;94282.28;5068856;28;20375;-62
2023/06/27 07:45:12;;;;;;;6.30;3.03;;;;;;;25.55;45.27;94284.81;5068282;28;20032;-62
2023/06/27 07:47:39;;;;;;;5.50;3.00;;;;;;;26.93;42.85;94274.03;5068340;28;20048;-63
2023/06/27 07:50:06;;;;;;;9.37;2.97;;;;;;;24.77;48.56;94282.34;5068490;28;20056;-63
2023/06/27 07:52:32;;;;;;;9.30;3.10;;;;;;;25.01;47.78;94270.75;5068354;28;20044;-62
2023/06/27 07:54:59;;;;;;;6.13;2.67;;;;;;;25.70;46.59;94274.16;5068724;28;20047;-63
2023/06/27 07:57:26;;;;;;;7.95;3.15;;;;;;;27.13;43.39;94276.53;5050481;28;20097;-62
2023/06/27 07:59:53;;;;;;;6.25;2.92;;;;;;;26.62;41.35;94273.81;5068624;28;20504;-62
2023/06/27 08:02:20;;;;;;;6.23;2.60;;;;;;;26.31;43.28;94280.41;5067933;28;20094;-62
2023/06/27 08:04:46;;;;;;;8.45;3.13;;;;;;;24.03;47.09;94283.78;5068799;28;20062;-62
2023/06/27 08:07:13;;;;;;;7.30;3.00;;;;;;;24.06;45.83;94288.38;5068628;28;20041;-63
2023/06/27 08:09:40;;;;;;;5.13;2.95;;;;;;;24.49;47.05;94294.88;5067825;28;20396;-62
2023/06/27 08:12:09;;;;;;;6.63;2.80;;;;;;;26.57;41.97;94296.28;5068633;28;20068;-62
2023/06/27 08:14:36;;;;;;;4.90;2.60;;;;;;;27.20;38.44;94290.06;5068263;28;20331;-62
2023/06/27 08:17:03;;;;;;;6.10;2.40;;;;;;;26.90;38.98;94295.50;5068216;28;20047;-62
2023/06/27 08:19:29;;;;;;;5.90;2.60;;;;;;;27.19;38.01;94293.44;5067659;28;20053;-62
2023/06/27 08:21:56;;;;;;;5.47;2.40;;;;;;;28.60;35.80;94285.06;5087834;28;20484;-62
2023/06/27 08:24:23;;;;;;;5.45;2.20;;;;;;;28.71;35.16;94280.59;5087867;28;20575;-62
2023/06/27 08:26:50;;;;;;;5.73;2.80;;;;;;;27.21;37.41;94288.81;5088495;28;20046;-62
2023/06/27 08:29:17;;;;;;;6.07;2.90;;;;;;;24.31;41.31;94290.41;5087098;28;20051;-61
2023/06/27 08:31:43;;;;;;;7.43;3.08;;;;;;;23.47;44.14;94290.28;5068424;28;20503;-62
2023/06/27 08:34:13;;;;;;;7.95;3.60;;;;;;;24.39;42.56;94290.72;5068093;28;20183;-62
2023/06/27 08:36:39;;;;;;;6.80;2.90;;;;;;;23.80;44.43;94285.56;5067499;28;20072;-63
2023/06/27 08:39:06;;;;;;;7.23;2.93;;;;;;;23.77;44.29;94283.75;5068176;28;20041;-63
2023/06/27 08:41:33;;;;;;;5.78;2.83;;;;;;;26.50;40.31;94277.84;5068010;28;20041;-63
2023/06/27 08:44:00;;;;;;;7.07;2.90;;;;;;;29.50;34.60;94268.50;5068389;28;20049;-63
2023/06/27 08:46:30;;;;;;;5.07;2.58;;;;;;;29.78;33.01;94273.84;5066813;28;20056;-62
2023/06/27 08:49:02;;;;;;;5.85;2.63;;;;;;;30.30;32.77;94275.47;5067976;28;20057;-63
2023/06/27 08:51:31;;;;;;;4.43;2.40;;;;;;;31.71;30.43;94269.41;5067843;28;20059;-63
2023/06/27 08:54:14;;;;;;;6.10;2.53;;;;;;;32.71;28.25;94271.31;5068170;28;20040;-64
2023/06/27 08:56:41;;;;;;;6.15;2.38;;;;;;;32.85;27.71;94269.19;5067093;28;20047;-63
2023/06/27 08:59:15;;;;;;;4.75;2.60;;;;;;;31.51;29.16;94268.00;5067994;28;20049;-63
2023/06/27 09:01:43;;;;;;;6.30;2.40;;;;;;;30.35;30.60;94271.03;5067213;28;20101;-63
2023/06/27 09:04:10;;;;;;;5.47;2.50;;;;;;;30.97;28.73;94262.28;5068142;28;20399;-63
2023/06/27 09:06:39;;;;;;;6.07;2.90;;;;;;;31.61;27.34;94261.34;5067966;28;20041;-62
2023/06/27 09:09:06;;;;;;;5.85;2.22;;;;;;;33.43;25.37;94253.69;5067906;28;20048;-64
2023/06/27 09:11:34;;;;;;;5.13;2.30;;;;;;;32.86;26.17;94242.28;5067384;28;20250;-64
2023/06/27 09:14:02;;;;;;;5.32;2.42;;;;;;;30.99;28.37;94247.59;5067866;28;20068;-64
2023/06/27 09:16:29;;;;;;;7.20;2.70;;;;;;;27.64;33.00;94251.00;5067312;28;20045;-64
2023/06/27 09:18:56;;;;;;;6.88;2.83;;;;;;;24.71;38.24;94263.44;5068211;28;20051;-61
2023/06/27 09:21:23;;;;;;;6.30;3.08;;;;;;;24.08;39.38;94255.00;5063732;28;20037;-63
2023/06/27 09:23:50;;;;;;;5.80;2.70;;;;;;;24.22;39.81;94268.13;5088073;28;20190;-63
2023/06/27 09:26:17;;;;;;;5.68;3.10;;;;;;;23.98;41.95;94259.25;5086922;28;20059;-63
2023/06/27 09:28:49;;;;;;;5.67;2.90;;;;;;;27.12;35.87;94252.44;5088386;28;20149;-63
2023/06/27 09:31:20;;;;;;;5.45;2.80;;;;;;;28.55;33.17;94248.38;5069986;28;20564;-63
2023/06/27 09:33:48;;;;;;;5.90;2.88;;;;;;;29.85;30.98;94250.63;5067932;28;20041;-63
2023/06/27 09:36:31;;;;;;;6.43;3.15;;;;;;;28.75;31.67;94241.53;5067041;28;20062;-64
2023/06/27 09:39:12;;;;;;;5.25;2.70;;;;;;;30.49;30.69;94247.13;5067804;28;20040;-63
2023/06/27 09:41:49;;;;;;;4.83;2.60;;;;;;;31.40;28.34;94249.88;5067466;28;20036;-62
2023/06/27 09:44:17;;;;;;;5.07;2.33;;;;;;;29.85;29.87;94245.72;5067063;28;20044;-62
2023/06/27 09:46:46;;;;;;;7.60;2.70;;;;;;;28.32;32.08;94233.69;5067966;28;20041;-63
2023/06/27 09:49:14;;;;;;;7.13;2.88;;;;;;;27.13;33.48;94234.28;5052701;28;20052;-63
2023/06/27 09:51:52;;;;;;;6.30;2.50;;;;;;;28.57;31.94;94232.44;5052914;28;21532;-63
2023/06/27 09:54:21;;;;;;;4.77;2.80;;;;;;;28.38;30.66;94231.56;5070779;28;20099;-63
2023/06/27 09:56:50;;;;;;;6.50;2.63;;;;;;;29.35;29.78;94232.19;5071524;28;20055;-64
2023/06/27 09:59:19;;;;;;;5.20;2.40;;;;;;;30.12;28.83;94239.41;5070674;28;20056;-64
2023/06/27 10:01:51;;;;;;;4.20;2.33;;;;;;;30.42;29.20;94234.34;5071409;28;20403;-64
2023/06/27 10:04:18;;;;;;;5.75;2.45;;;;;;;29.55;29.65;94251.47;5052828;28;20446;-63
2023/06/27 10:06:45;;;;;;;6.67;2.90;;;;;;;27.03;33.18;94244.28;5071093;28;20067;-64
2023/06/27 10:09:13;;;;;;;4.93;2.70;;;;;;;27.01;33.42;94244.81;5070993;28;20045;-63
2023/06/27 10:11:39;;;;;;;6.10;3.33;;;;;;;25.43;36.84;94247.47;5070651;28;20033;-64
2023/06/27 10:14:07;;;;;;;7.28;2.83;;;;;;;25.37;37.12;94248.75;5070926;28;20109;-63
2023/06/27 10:16:34;;;;;;;7.30;3.00;;;;;;;25.29;37.15;94232.38;5070873;28;20071;-63
2023/06/27 10:19:02;;;;;;;9.30;3.20;;;;;;;22.92;41.71;94244.25;5071054;28;20044;-63
2023/06/27 10:21:30;;;;;;;6.18;2.75;;;;;;;26.24;35.62;94233.88;5085382;28;20048;-63
2023/06/27 10:23:59;;;;;;;5.90;2.80;;;;;;;26.24;33.95;94233.88;5090911;28;20048;-63
2023/06/27 10:26:27;;;;;;;5.13;2.83;;;;;;;27.46;32.03;94233.38;5089582;28;20067;-63
2023/06/27 10:28:54;;;;;;;5.80;2.60;;;;;;;28.95;29.74;94232.59;5090696;28;20524;-63
2023/06/27 10:31:42;;;;;;;6.07;2.80;;;;;;;28.78;30.53;94237.66;5071969;28;20048;-63
2023/06/27 10:34:16;;;;;;;5.40;2.60;;;;;;;29.56;29.09;94238.09;5070313;28;20048;-64
2023/06/27 10:36:55;;;;;;;5.75;2.53;;;;;;;29.76;29.47;94245.31;5069520;28;20687;-63
2023/06/27 10:39:26;;;;;;;5.95;2.63;;;;;;;28.74;31.26;94235.13;5069449;28;20508;-63
2023/06/27 10:42:18;;;;;;;5.57;2.80;;;;;;;28.76;30.65;94252.31;5070279;28;20079;-63
2023/06/27 10:44:53;;;;;;;5.30;2.57;;;;;;;29.50;29.57;94237.41;5057444;28;20660;-63
2023/06/27 10:47:20;;;;;;;5.15;2.53;;;;;;;29.80;29.05;94245.78;5069267;28;20438;-63
2023/06/27 10:49:48;;;;;;;5.85;2.55;;;;;;;28.29;30.44;94239.09;5070284;28;20460;-63
2023/06/27 10:52:22;;;;;;;5.97;2.60;;;;;;;26.50;32.70;94232.81;5069799;28;20044;-63
2023/06/27 10:55:13;;;;;;;5.18;2.60;;;;;;;24.96;34.87;94235.75;5069178;28;20689;-62
2023/06/27 10:57:43;;;;;;;6.87;2.57;;;;;;;25.29;35.36;94237.22;5068456;28;20626;-63
2023/06/27 11:00:14;;;;;;;5.38;2.53;;;;;;;25.85;34.13;94225.34;5068859;28;20532;-62
2023/06/27 11:02:42;;;;;;;6.03;2.95;;;;;;;26.46;33.60;94235.13;5069473;28;20230;-62
2023/06/27 11:05:16;;;;;;;5.00;2.80;;;;;;;27.05;32.84;94228.41;5070198;28;20044;-62
2023/06/27 11:07:54;;;;;;;5.55;2.88;;;;;;;27.30;32.29;94234.22;5069048;28;20686;-62
2023/06/27 11:10:23;;;;;;;5.93;2.87;;;;;;;27.78;31.50;94232.22;5068811;28;20048;-63
2023/06/27 11:12:51;;;;;;;5.05;2.60;;;;;;;27.82;31.26;94241.16;5069445;28;20048;-62
2023/06/27 11:15:19;;;;;;;5.97;2.75;;;;;;;27.30;30.83;94228.59;5068903;28;20045;-62
2023/06/27 11:17:46;;;;;;;7.32;2.80;;;;;;;26.81;31.67;94222.59;5069548;28;20046;-62
2023/06/27 11:20:12;;;;;;;5.57;2.75;;;;;;;27.10;31.27;94219.19;5074139;28;20036;-63
2023/06/27 11:22:39;;;;;;;7.37;2.70;;;;;;;27.05;32.86;94227.66;5088986;28;20039;-63
2023/06/27 11:25:14;;;;;;;5.70;2.45;;;;;;;27.43;30.83;94223.16;5089682;28;20147;-62
2023/06/27 11:27:41;;;;;;;6.88;2.78;;;;;;;26.22;31.94;94215.94;5089167;28;20517;-63
2023/06/27 11:30:08;;;;;;;6.70;2.80;;;;;;;26.80;31.97;94215.41;5082083;28;20581;-62
2023/06/27 11:32:36;;;;;;;7.03;2.70;;;;;;;27.92;30.85;94216.25;5068999;28;20048;-63
2023/06/27 11:35:08;;;;;;;5.17;2.60;;;;;;;28.49;29.77;94209.66;5069553;28;20074;-63